createdAt,value
2022-08-25T00:02:13.361Z,1.75
2022-08-25T00:04:59.267Z,2.45
2022-08-25T00:07:45.187Z,1.90
2022-08-25T00:10:31.009Z,1.63
2022-08-25T00:13:16.431Z,1.88
2022-08-25T00:16:01.925Z,1.77
2022-08-25T00:18:51.331Z,1.95
2022-08-25T00:21:37.003Z,2.50
2022-08-25T00:24:22.575Z,2.10
2022-08-25T00:27:08.267Z,1.98
2022-08-25T00:29:54.127Z,1.92
2022-08-25T00:32:40.669Z,1.98
2022-08-25T00:35:27.048Z,1.98
2022-08-25T00:38:13.528Z,2.08
2022-08-25T00:41:08.425Z,1.48
2022-08-25T00:43:58.005Z,1.73
2022-08-25T00:46:47.757Z,2.08
2022-08-25T00:49:39.235Z,1.27
2022-08-25T00:52:32.383Z,1.42
2022-08-25T00:55:31.154Z,2.40
2022-08-25T00:58:22.177Z,2.33
2022-08-25T01:01:08.108Z,1.88
2022-08-25T01:03:54.746Z,2.00
2022-08-25T01:06:44.565Z,1.73
2022-08-25T01:09:32.964Z,1.98
2022-08-25T01:12:19.036Z,2.15
2022-08-25T01:15:08.533Z,1.80
2022-08-25T01:17:57.536Z,1.83
2022-08-25T01:20:49.977Z,1.70
2022-08-25T01:23:35.634Z,1.83
2022-08-25T01:26:25.102Z,1.98
2022-08-25T01:29:22.521Z,2.60
2022-08-25T01:32:11.082Z,2.05
2022-08-25T01:34:56.449Z,2.00
2022-08-25T01:37:41.812Z,1.90
2022-08-25T01:40:28.099Z,1.80
2022-08-25T01:43:31.150Z,1.77
2022-08-25T01:46:16.766Z,2.63
2022-08-25T01:49:06.667Z,2.20
2022-08-25T01:51:57.915Z,2.05
2022-08-25T01:54:43.750Z,2.05
2022-08-25T01:57:32.233Z,2.15
2022-08-25T02:00:19.109Z,3.15
2022-08-25T02:03:04.598Z,2.53
2022-08-25T02:05:59.045Z,1.73
2022-08-25T02:08:44.547Z,2.33
2022-08-25T02:11:33.504Z,1.88
2022-08-25T02:14:20.029Z,2.00
2022-08-25T02:17:06.285Z,1.88
2022-08-25T02:19:51.875Z,2.50
2022-08-25T02:22:37.474Z,2.17
2022-08-25T02:25:22.810Z,2.80
2022-08-25T02:28:09.675Z,2.17
2022-08-25T02:31:00.175Z,2.08
2022-08-25T02:33:47.263Z,2.70
2022-08-25T02:36:33.363Z,2.92
2022-08-25T02:39:18.756Z,2.13
2022-08-25T02:42:04.613Z,2.33
2022-08-25T02:44:50.706Z,2.47
2022-08-25T02:47:37.322Z,2.25
2022-08-25T02:50:23.609Z,1.50
2022-08-25T02:53:09.192Z,1.85
2022-08-25T02:55:55.012Z,1.92
2022-08-25T02:58:41.985Z,1.67
2022-08-25T03:01:28.404Z,1.77
2022-08-25T03:04:14.750Z,1.65
2022-08-25T03:07:00.405Z,3.90
2022-08-25T03:09:46.856Z,1.90
2022-08-25T03:12:32.491Z,2.00
2022-08-25T03:15:18.413Z,2.33
2022-08-25T03:18:05.978Z,2.25
2022-08-25T03:20:54.321Z,2.30
2022-08-25T03:23:41.434Z,1.85
2022-08-25T03:26:45.579Z,1.63
2022-08-25T03:29:33.690Z,2.22
2022-08-25T03:32:19.090Z,2.55
2022-08-25T03:35:05.151Z,1.50
2022-08-25T03:37:51.390Z,2.58
2022-08-25T03:40:36.973Z,3.88
2022-08-25T03:43:22.614Z,2.15
2022-08-25T03:46:08.410Z,2.22
2022-08-25T03:48:54.520Z,1.73
2022-08-25T03:51:43.640Z,1.33
2022-08-25T03:54:29.521Z,2.05
2022-08-25T03:57:14.772Z,2.47
2022-08-25T04:00:00.199Z,1.83
2022-08-25T04:02:45.680Z,1.95
2022-08-25T04:05:31.296Z,2.03
2022-08-25T04:08:19.504Z,2.63
2022-08-25T04:11:14.589Z,1.85
2022-08-25T04:14:02.406Z,2.58
2022-08-25T04:16:48.099Z,2.28
2022-08-25T04:19:33.652Z,2.05
2022-08-25T04:22:19.879Z,2.92
2022-08-25T04:25:07.715Z,2.15
2022-08-25T04:27:55.190Z,2.45
2022-08-25T04:30:43.738Z,2.58
2022-08-25T04:33:29.383Z,2.42
2022-08-25T04:36:16.318Z,2.15
2022-08-25T04:39:02.363Z,2.63
2022-08-25T04:41:49.410Z,3.40
2022-08-25T04:44:34.694Z,2.75
2022-08-25T04:47:20.190Z,2.13
2022-08-25T04:50:07.516Z,1.60
2022-08-25T04:52:53.234Z,2.53
2022-08-25T04:55:45.972Z,2.17
2022-08-25T04:58:33.180Z,2.22
2022-08-25T05:01:21.712Z,2.58
2022-08-25T05:04:27.764Z,2.35
2022-08-25T05:07:13.909Z,2.03
2022-08-25T05:09:59.313Z,2.97
2022-08-25T05:12:44.571Z,1.73
2022-08-25T05:15:48.468Z,2.33
2022-08-25T05:18:36.822Z,2.20
2022-08-25T05:21:25.275Z,2.53
2022-08-25T05:24:10.897Z,1.67
2022-08-25T05:26:56.839Z,1.65
2022-08-25T05:29:42.549Z,2.13
2022-08-25T05:32:27.918Z,2.40
2022-08-25T05:35:13.595Z,2.13
2022-08-25T05:37:59.634Z,2.13
2022-08-25T05:40:45.234Z,2.13
2022-08-25T05:43:31.095Z,1.70
2022-08-25T05:46:18.723Z,1.92
2022-08-25T05:49:04.159Z,2.13
2022-08-25T05:51:50.145Z,1.77
2022-08-25T05:54:35.509Z,2.13
2022-08-25T05:57:20.798Z,2.05
2022-08-25T06:00:07.529Z,2.40
2022-08-25T06:02:57.804Z,2.42
2022-08-25T06:05:43.609Z,2.40
2022-08-25T06:08:32.352Z,1.58
2022-08-25T06:11:18.078Z,2.33
2022-08-25T06:14:04.826Z,2.67
2022-08-25T06:16:51.767Z,2.15
2022-08-25T06:19:41.258Z,1.95
2022-08-25T06:22:26.977Z,1.75
2022-08-25T06:25:14.867Z,2.08
2022-08-25T06:28:00.697Z,2.53
2022-08-25T06:30:47.342Z,2.17
2022-08-25T06:33:33.319Z,2.13
2022-08-25T06:36:19.688Z,1.95
2022-08-25T06:39:05.389Z,1.83
2022-08-25T06:41:52.970Z,2.28
2022-08-25T06:44:38.535Z,1.90
2022-08-25T06:47:24.379Z,1.85
2022-08-25T06:50:10.846Z,1.85
2022-08-25T06:52:57.127Z,2.45
2022-08-25T06:55:42.563Z,2.53
2022-08-25T06:58:28.202Z,2.10
2022-08-25T07:01:20.178Z,1.67
2022-08-25T07:04:11.839Z,1.88
2022-08-25T07:06:59.157Z,1.67
2022-08-25T07:09:44.574Z,1.75
2022-08-25T07:12:30.053Z,1.67
2022-08-25T07:15:20.531Z,2.35
2022-08-25T07:18:07.666Z,1.67
2022-08-25T07:20:54.251Z,1.65
2022-08-25T07:23:42.148Z,1.67
2022-08-25T07:26:37.689Z,2.10
2022-08-25T07:32:34.554Z,1.90
2022-08-25T07:35:23.976Z,3.00
2022-08-25T07:38:10.212Z,2.50
2022-08-25T07:41:04.618Z,2.47
2022-08-25T07:43:50.112Z,1.80
2022-08-25T07:46:36.218Z,2.33
2022-08-25T07:49:24.069Z,1.38
2022-08-25T07:52:10.415Z,2.45
2022-08-25T07:54:56.189Z,1.90
2022-08-25T07:57:42.710Z,2.47
2022-08-25T08:00:30.221Z,2.30
2022-08-25T08:03:35.325Z,1.77
2022-08-25T08:06:23.733Z,1.85
2022-08-25T08:09:09.630Z,2.03
2022-08-25T08:11:55.173Z,2.10
2022-08-25T08:14:45.159Z,2.20
2022-08-25T08:17:32.051Z,1.60
2022-08-25T08:20:17.967Z,1.58
2022-08-25T08:23:09.131Z,1.55
2022-08-25T08:25:56.614Z,1.73
2022-08-25T08:28:43.502Z,1.95
2022-08-25T08:31:29.345Z,1.80
2022-08-25T08:34:16.154Z,2.20
2022-08-25T08:37:03.365Z,1.30
2022-08-25T08:39:49.205Z,1.80
2022-08-25T08:42:38.022Z,1.92
2022-08-25T08:45:35.689Z,2.10
2022-08-25T08:48:49.821Z,1.60
2022-08-25T08:51:53.358Z,1.85
2022-08-25T08:54:42.357Z,1.70
2022-08-25T08:57:30.066Z,1.48
2022-08-25T09:00:18.028Z,1.40
2022-08-25T09:03:12.132Z,1.85
2022-08-25T09:06:01.629Z,1.63
2022-08-25T09:08:49.112Z,1.52
2022-08-25T09:11:59.998Z,1.63
2022-08-25T09:15:13.818Z,1.83
2022-08-25T09:18:39.001Z,1.50
2022-08-25T09:21:48.739Z,1.00
2022-08-25T09:24:41.477Z,1.50
2022-08-25T09:27:35.962Z,1.92
2022-08-25T09:30:25.051Z,1.10
2022-08-25T09:33:15.437Z,1.20
2022-08-25T09:36:09.017Z,1.33
2022-08-25T09:38:55.011Z,2.00
2022-08-25T09:41:51.247Z,1.40
2022-08-25T09:44:43.719Z,1.50
2022-08-25T09:47:29.639Z,1.05
2022-08-25T09:50:19.104Z,1.05
2022-08-25T09:53:17.143Z,0.77
2022-08-25T09:56:07.511Z,2.03
2022-08-25T09:58:54.449Z,1.92
2022-08-25T10:01:52.219Z,1.38
2022-08-25T10:04:40.613Z,1.40
2022-08-25T10:07:35.725Z,2.47
2022-08-25T10:10:53.295Z,1.00
2022-08-25T10:13:51.334Z,0.98
2022-08-25T10:16:37.176Z,0.90
2022-08-25T10:19:26.716Z,1.00
2022-08-25T10:22:32.449Z,1.15
2022-08-25T10:25:28.367Z,1.00
2022-08-25T10:28:16.974Z,1.48
2022-08-25T10:31:05.845Z,0.80
2022-08-25T10:34:02.717Z,0.93
2022-08-25T10:37:15.467Z,1.30
2022-08-25T10:40:01.128Z,0.75
2022-08-25T10:43:25.276Z,1.20
2022-08-25T10:46:37.182Z,0.70
2022-08-25T10:49:37.781Z,0.82
2022-08-25T10:52:49.336Z,1.15
2022-08-25T10:55:41.333Z,1.63
2022-08-25T10:59:04.436Z,1.23
2022-08-25T11:02:08.301Z,0.70
2022-08-25T11:05:01.906Z,0.95
2022-08-25T11:07:52.189Z,0.60
2022-08-25T11:10:48.918Z,0.50
2022-08-25T11:13:40.966Z,1.08
2022-08-25T11:16:39.969Z,0.90
2022-08-25T11:20:01.009Z,1.00
2022-08-25T11:22:53.807Z,0.82
2022-08-25T11:25:45.967Z,0.50
2022-08-25T11:28:43.106Z,1.05
2022-08-25T11:31:28.933Z,1.00
2022-08-25T11:34:15.539Z,0.93
2022-08-25T11:37:28.044Z,1.08
2022-08-25T11:40:38.723Z,1.45
2022-08-25T11:46:46.288Z,0.60
2022-08-25T11:49:50.382Z,0.88
2022-08-25T11:52:47.010Z,0.90
2022-08-25T11:55:35.469Z,0.73
2022-08-25T11:58:27.896Z,1.05
2022-08-25T12:01:43.230Z,1.10
2022-08-25T12:04:44.320Z,0.88
2022-08-25T12:08:11.694Z,1.20
2022-08-25T12:10:57.266Z,0.88
2022-08-25T12:13:47.566Z,0.70
2022-08-25T12:16:36.104Z,0.93
2022-08-25T12:19:38.115Z,1.05
2022-08-25T12:22:23.438Z,0.82
2022-08-25T12:25:44.837Z,1.00
2022-08-25T12:28:49.611Z,0.80
2022-08-25T12:31:44.300Z,1.08
2022-08-25T12:34:50.422Z,0.80
2022-08-25T12:37:58.688Z,0.70
2022-08-25T12:40:45.387Z,0.80
2022-08-25T12:43:43.575Z,0.80
2022-08-25T12:46:29.963Z,0.65
2022-08-25T12:49:15.519Z,1.17
2022-08-25T12:52:07.530Z,0.80
2022-08-25T12:55:00.827Z,0.75
2022-08-25T12:57:57.874Z,0.70
2022-08-25T13:01:09.386Z,0.77
2022-08-25T13:04:17.214Z,0.90
2022-08-25T13:07:44.411Z,1.15
2022-08-25T13:10:51.766Z,0.93
2022-08-25T13:14:05.190Z,0.55
2022-08-25T13:16:59.295Z,0.60
2022-08-25T13:19:44.704Z,0.60
2022-08-25T13:22:31.784Z,0.70
2022-08-25T13:25:31.476Z,0.68
2022-08-25T13:28:40.769Z,0.93
2022-08-25T13:31:29.926Z,1.10
2022-08-25T13:34:21.351Z,0.77
2022-08-25T13:37:26.481Z,1.70
2022-08-25T13:40:24.784Z,1.33
2022-08-25T13:43:14.320Z,1.17
2022-08-25T13:46:00.567Z,0.73
2022-08-25T13:48:49.545Z,0.93
2022-08-25T13:51:37.284Z,1.05
2022-08-25T13:54:31.757Z,1.25
2022-08-25T13:57:30.254Z,0.55
2022-08-25T14:00:43.172Z,0.68
2022-08-25T14:03:38.258Z,0.60
2022-08-25T14:06:27.029Z,0.52
2022-08-25T14:09:18.236Z,0.80
2022-08-25T14:12:47.357Z,0.55
2022-08-25T14:15:34.012Z,0.45
2022-08-25T14:18:30.840Z,0.60
2022-08-25T14:21:22.733Z,0.52
2022-08-25T14:24:08.481Z,0.93
2022-08-25T14:26:56.558Z,1.20
2022-08-25T14:29:42.429Z,0.70
2022-08-25T14:32:28.114Z,0.38
2022-08-25T14:35:13.925Z,0.68
2022-08-25T14:38:11.291Z,0.70
2022-08-25T14:40:59.220Z,0.73
2022-08-25T14:43:45.469Z,0.55
2022-08-25T14:46:33.969Z,0.73
2022-08-25T14:49:25.536Z,0.93
2022-08-25T14:52:22.462Z,0.50
2022-08-25T14:55:10.127Z,0.30
2022-08-25T14:57:55.790Z,0.45
2022-08-25T15:00:45.204Z,0.43
2022-08-25T15:03:43.560Z,0.85
2022-08-25T15:06:36.248Z,0.43
2022-08-25T15:09:21.879Z,0.75
2022-08-25T15:12:07.820Z,0.88
2022-08-25T15:14:54.909Z,0.60
2022-08-25T15:17:44.825Z,0.60
2022-08-25T15:20:31.098Z,0.82
2022-08-25T15:23:18.790Z,0.47
2022-08-25T15:26:05.323Z,0.57
2022-08-25T15:28:51.431Z,0.55
2022-08-25T15:31:39.933Z,0.98
2022-08-25T15:34:26.069Z,0.60
2022-08-25T15:37:14.320Z,0.68
2022-08-25T15:39:59.849Z,0.52
2022-08-25T15:42:45.985Z,0.70
2022-08-25T15:45:32.229Z,0.77
2022-08-25T15:48:18.638Z,0.95
2022-08-25T15:51:05.527Z,0.77
2022-08-25T15:53:50.798Z,0.73
2022-08-25T15:56:37.081Z,1.00
2022-08-25T15:59:23.255Z,0.80
2022-08-25T16:02:15.205Z,0.73
2022-08-25T16:05:01.947Z,0.77
2022-08-25T16:07:51.593Z,1.30
2022-08-25T16:10:43.306Z,0.82
2022-08-25T16:13:28.958Z,0.93
2022-08-25T16:16:16.559Z,0.90
2022-08-25T16:19:02.576Z,0.80
2022-08-25T16:21:48.355Z,0.90
2022-08-25T16:24:34.452Z,1.38
2022-08-25T16:27:24.370Z,0.60
2022-08-25T16:30:16.753Z,0.55
2022-08-25T16:35:49.184Z,0.75
2022-08-25T16:38:37.115Z,0.80
2022-08-25T16:41:26.161Z,0.95
2022-08-25T16:44:11.819Z,0.93
2022-08-25T16:46:57.845Z,0.80
2022-08-25T16:49:43.472Z,1.38
2022-08-25T16:52:47.452Z,0.98
2022-08-25T16:55:39.337Z,0.75
2022-08-25T16:58:25.097Z,0.77
2022-08-25T17:01:13.029Z,1.17
2022-08-25T17:03:59.010Z,1.05
2022-08-25T17:06:51.622Z,0.77
2022-08-25T17:09:37.630Z,0.95
2022-08-25T17:12:23.015Z,0.73
2022-08-25T17:15:09.842Z,1.10
2022-08-25T17:17:55.260Z,1.10
2022-08-25T17:20:43.500Z,0.88
2022-08-25T17:23:29.708Z,1.08
2022-08-25T17:26:17.570Z,1.02
2022-08-25T17:29:03.407Z,1.00
2022-08-25T17:31:49.437Z,1.00
2022-08-25T17:34:37.095Z,0.70
2022-08-25T17:37:23.076Z,0.80
2022-08-25T17:40:11.113Z,1.02
2022-08-25T17:42:56.727Z,0.65
2022-08-25T17:45:42.418Z,1.10
2022-08-25T17:48:29.312Z,1.15
2022-08-25T17:51:18.996Z,1.33
2022-08-25T17:54:04.510Z,2.85
2022-08-25T17:56:50.266Z,4.32
2022-08-25T17:59:40.171Z,1.58
2022-08-25T18:02:26.126Z,1.92
2022-08-25T18:05:15.541Z,1.60
2022-08-25T18:08:03.437Z,1.35
2022-08-25T18:10:58.341Z,1.52
2022-08-25T18:13:47.158Z,1.10
2022-08-25T18:16:37.092Z,0.88
2022-08-25T18:19:22.721Z,1.05
2022-08-25T18:22:08.362Z,2.70
2022-08-25T18:24:53.893Z,2.80
2022-08-25T18:27:41.826Z,3.13
2022-08-25T18:30:27.445Z,2.85
2022-08-25T18:33:13.139Z,2.25
2022-08-25T18:35:58.462Z,2.45
2022-08-25T18:39:03.372Z,1.52
2022-08-25T18:41:48.999Z,1.08
2022-08-25T18:44:34.446Z,1.00
2022-08-25T18:47:19.718Z,0.90
2022-08-25T18:50:08.255Z,1.23
2022-08-25T18:52:55.344Z,0.88
2022-08-25T18:55:43.429Z,1.45
2022-08-25T18:58:29.641Z,1.45
2022-08-25T19:01:16.823Z,1.23
2022-08-25T19:04:04.874Z,1.02
2022-08-25T19:06:51.784Z,1.20
2022-08-25T19:09:37.799Z,1.42
2022-08-25T19:12:23.419Z,1.20
2022-08-25T19:15:09.693Z,1.02
2022-08-25T19:17:57.258Z,1.10
2022-08-25T19:20:43.873Z,1.05
2022-08-25T19:23:29.491Z,1.05
2022-08-25T19:26:17.825Z,1.40
2022-08-25T19:29:09.033Z,1.17
2022-08-25T19:31:55.791Z,1.08
2022-08-25T19:34:45.392Z,1.00
2022-08-25T19:37:30.816Z,1.42
2022-08-25T19:40:20.349Z,1.20
2022-08-25T19:43:08.822Z,1.13
2022-08-25T19:45:54.259Z,2.35
2022-08-25T19:48:40.209Z,1.70
2022-08-25T19:51:26.132Z,1.50
2022-08-25T19:54:14.264Z,1.60
2022-08-25T19:57:02.731Z,1.30
2022-08-25T19:59:48.473Z,1.23
2022-08-25T20:02:35.022Z,1.50
2022-08-25T20:05:23.842Z,1.15
2022-08-25T20:08:10.054Z,1.42
2022-08-25T20:10:55.633Z,1.58
2022-08-25T20:13:41.904Z,1.25
2022-08-25T20:16:28.318Z,1.67
2022-08-25T20:19:15.874Z,1.40
2022-08-25T20:22:01.994Z,0.85
2022-08-25T20:24:51.067Z,2.05
2022-08-25T20:27:44.772Z,1.55
2022-08-25T20:30:30.376Z,1.17
2022-08-25T20:33:20.179Z,1.35
2022-08-25T20:36:08.601Z,1.52
2022-08-25T20:38:54.207Z,1.38
2022-08-25T20:41:40.161Z,1.40
2022-08-25T20:44:25.845Z,1.27
2022-08-25T20:47:11.716Z,1.02
2022-08-25T20:50:01.178Z,1.25
2022-08-25T20:52:48.999Z,1.30
2022-08-25T20:55:39.190Z,1.40
2022-08-25T20:58:28.691Z,1.25
2022-08-25T21:01:23.710Z,1.20
2022-08-25T21:04:14.427Z,1.38
2022-08-25T21:07:03.073Z,1.10
2022-08-25T21:09:49.824Z,1.30
2022-08-25T21:12:36.414Z,1.35
2022-08-25T21:15:22.494Z,1.23
2022-08-25T21:18:08.437Z,1.52
2022-08-25T21:20:57.317Z,0.93
2022-08-25T21:23:45.761Z,1.42
2022-08-25T21:26:32.005Z,0.90
2022-08-25T21:29:20.499Z,1.55
2022-08-25T21:32:06.579Z,1.30
2022-08-25T21:34:56.277Z,1.27
2022-08-25T21:37:42.011Z,1.15
2022-08-25T21:40:27.405Z,1.50
2022-08-25T21:43:13.465Z,1.27
2022-08-25T21:45:59.112Z,1.27
2022-08-25T21:48:46.909Z,1.23
2022-08-25T21:51:40.990Z,1.25
2022-08-25T21:54:26.411Z,1.40
2022-08-25T21:57:13.190Z,1.02
2022-08-25T21:59:58.639Z,1.38
2022-08-25T22:02:46.017Z,1.05
2022-08-25T22:05:31.964Z,1.27
2022-08-25T22:08:17.566Z,1.20
2022-08-25T22:11:06.639Z,1.20
2022-08-25T22:13:54.426Z,1.27
2022-08-25T22:16:43.071Z,1.20
2022-08-25T22:19:28.641Z,1.30
2022-08-25T22:22:15.900Z,1.30
2022-08-25T22:27:56.434Z,1.00
2022-08-25T22:30:42.805Z,1.33
2022-08-25T22:33:29.473Z,1.27
2022-08-25T22:36:17.381Z,1.45
2022-08-25T22:39:05.585Z,1.20
2022-08-25T22:41:52.048Z,0.93
2022-08-25T22:44:40.009Z,1.08
2022-08-25T22:47:25.305Z,1.65
2022-08-25T22:50:12.767Z,1.50
2022-08-25T22:52:58.467Z,1.20
2022-08-25T22:55:43.993Z,1.38
2022-08-25T22:58:29.551Z,1.88
2022-08-25T23:01:18.406Z,1.25
2022-08-25T23:04:05.691Z,1.00
2022-08-25T23:06:51.083Z,1.20
2022-08-25T23:09:36.587Z,1.17
2022-08-25T23:12:23.799Z,1.40
2022-08-25T23:15:14.183Z,1.48
2022-08-25T23:17:59.877Z,1.20
2022-08-25T23:21:03.661Z,1.45
2022-08-25T23:23:50.555Z,1.88
2022-08-25T23:26:36.539Z,1.23
2022-08-25T23:29:21.890Z,1.10
2022-08-25T23:32:08.573Z,0.60
2022-08-25T23:34:54.086Z,1.85
2022-08-25T23:37:39.403Z,0.95
2022-08-25T23:40:25.199Z,0.98
2022-08-25T23:43:12.959Z,0.82
2022-08-25T23:45:58.235Z,1.15
2022-08-25T23:48:44.026Z,1.20
2022-08-25T23:51:37.054Z,1.00
2022-08-25T23:54:22.720Z,0.88
2022-08-25T23:57:17.524Z,1.42
